Terminal Aerodrome Forecast
Issued by NWS

Home | Current Version | Previous Version | Text Only | Print | Product List | Glossary On
Versions: 1 2 3 4 5 6 7 8 9 10 11 12 13 14 15 16 17 18 19 20 21 22 23 24
000
FTUS44 KOUN 261132
TAFHBR
TAF
KHBR 261132Z 2612/2712 18016G24KT P6SM BKN180
     FM262100 36010KT P6SM BKN120
     FM270100 36016G22KT P6SM OVC025=

USA.gov is the U.S. government's official web portal to all federal, state and local government web resources and services.